sensor_id;sensor_type;location;lat;lon;timestamp;pressure;altitude;pressure_sealevel;temperature;humidity
7264;BME280;3673;52.480;13.348;2023-03-20T00:01:51;101111.19;;;18.14;49.63
7264;BME280;3673;52.480;13.348;2023-03-20T00:04:19;101109.59;;;18.07;49.79
7264;BME280;3673;52.480;13.348;2023-03-20T00:06:47;101107.81;;;18.07;49.71
7264;BME280;3673;52.480;13.348;2023-03-20T00:09:14;101112.97;;;18.13;49.31
7264;BME280;3673;52.480;13.348;2023-03-20T00:11:46;101116.72;;;18.05;49.52
7264;BME280;3673;52.480;13.348;2023-03-20T00:14:16;101117.88;;;17.94;49.76
7264;BME280;3673;52.480;13.348;2023-03-20T00:16:46;101116.75;;;18.03;49.40
7264;BME280;3673;52.480;13.348;2023-03-20T00:19:16;101114.63;;;17.82;49.86
7264;BME280;3673;52.480;13.348;2023-03-20T00:21:46;101118.00;;;17.88;50.01
7264;BME280;3673;52.480;13.348;2023-03-20T00:24:13;101117.50;;;17.74;50.36
7264;BME280;3673;52.480;13.348;2023-03-20T00:26:42;101119.19;;;17.77;50.20
7264;BME280;3673;52.480;13.348;2023-03-20T00:29:19;101115.69;;;17.75;50.04
7264;BME280;3673;52.480;13.348;2023-03-20T00:31:47;101118.47;;;17.70;50.91
7264;BME280;3673;52.480;13.348;2023-03-20T00:34:18;101108.78;;;17.69;50.73
7264;BME280;3673;52.480;13.348;2023-03-20T00:36:48;101111.41;;;17.69;50.86
7264;BME280;3673;52.480;13.348;2023-03-20T00:39:15;101105.06;;;17.78;50.57
7264;BME280;3673;52.480;13.348;2023-03-20T00:41:44;101099.88;;;17.72;50.21
7264;BME280;3673;52.480;13.348;2023-03-20T00:44:20;101104.59;;;17.61;50.25
7264;BME280;3673;52.480;13.348;2023-03-20T00:46:50;101102.22;;;17.47;50.70
7264;BME280;3673;52.480;13.348;2023-03-20T00:49:20;101107.63;;;17.42;50.94
7264;BME280;3673;52.480;13.348;2023-03-20T00:51:49;101094.66;;;17.70;50.29
7264;BME280;3673;52.480;13.348;2023-03-20T00:54:16;101093.78;;;17.68;50.25
7264;BME280;3673;52.480;13.348;2023-03-20T00:56:47;101098.53;;;17.54;50.70
7264;BME280;3673;52.480;13.348;2023-03-20T00:59:19;101097.19;;;17.36;51.26
7264;BME280;3673;52.480;13.348;2023-03-20T01:01:47;101100.00;;;17.29;51.31
7264;BME280;3673;52.480;13.348;2023-03-20T01:04:16;101106.25;;;17.25;51.55
7264;BME280;3673;52.480;13.348;2023-03-20T01:06:44;101090.91;;;17.40;51.13
7264;BME280;3673;52.480;13.348;2023-03-20T01:09:13;101098.94;;;17.37;51.21
7264;BME280;3673;52.480;13.348;2023-03-20T01:11:40;101098.94;;;17.37;51.20
7264;BME280;3673;52.480;13.348;2023-03-20T01:14:15;101097.09;;;17.41;51.20
7264;BME280;3673;52.480;13.348;2023-03-20T01:16:42;101091.97;;;17.33;51.29
7264;BME280;3673;52.480;13.348;2023-03-20T01:19:12;101098.38;;;17.22;51.52
7264;BME280;3673;52.480;13.348;2023-03-20T01:21:40;101095.56;;;17.29;51.26
7264;BME280;3673;52.480;13.348;2023-03-20T01:24:07;101098.22;;;16.91;52.31
7264;BME280;3673;52.480;13.348;2023-03-20T01:26:37;101101.25;;;17.13;52.07
7264;BME280;3673;52.480;13.348;2023-03-20T01:29:15;101100.13;;;17.24;51.53
7264;BME280;3673;52.480;13.348;2023-03-20T01:31:43;101105.50;;;17.20;51.79
7264;BME280;3673;52.480;13.348;2023-03-20T01:34:10;101099.53;;;17.10;52.35
7264;BME280;3673;52.480;13.348;2023-03-20T01:36:37;101102.03;;;17.18;52.49
7264;BME280;3673;52.480;13.348;2023-03-20T01:39:05;101108.09;;;17.21;51.96
7264;BME280;3673;52.480;13.348;2023-03-20T01:41:32;101107.41;;;17.13;51.99
7264;BME280;3673;52.480;13.348;2023-03-20T01:44:15;101104.91;;;17.07;52.63
7264;BME280;3673;52.480;13.348;2023-03-20T01:46:43;101097.50;;;17.21;52.23
7264;BME280;3673;52.480;13.348;2023-03-20T01:50:11;101102.94;;;17.15;52.01
7264;BME280;3673;52.480;13.348;2023-03-20T01:52:43;101104.22;;;16.97;52.50
7264;BME280;3673;52.480;13.348;2023-03-20T01:55:10;101100.66;;;16.98;52.54
7264;BME280;3673;52.480;13.348;2023-03-20T01:57:38;101104.13;;;17.02;52.43
7264;BME280;3673;52.480;13.348;2023-03-20T02:00:10;101104.03;;;17.07;52.46
7264;BME280;3673;52.480;13.348;2023-03-20T02:02:39;101106.38;;;17.19;52.20
7264;BME280;3673;52.480;13.348;2023-03-20T02:05:10;101114.03;;;16.92;52.77
7264;BME280;3673;52.480;13.348;2023-03-20T02:07:39;101117.34;;;17.02;52.58
7264;BME280;3673;52.480;13.348;2023-03-20T02:10:10;101119.22;;;16.97;52.88
7264;BME280;3673;52.480;13.348;2023-03-20T02:12:38;101122.16;;;16.83;53.40
7264;BME280;3673;52.480;13.348;2023-03-20T02:15:08;101120.38;;;16.84;53.27
7264;BME280;3673;52.480;13.348;2023-03-20T02:17:35;101115.78;;;16.92;53.06
7264;BME280;3673;52.480;13.348;2023-03-20T02:20:09;101129.13;;;16.87;53.22
7264;BME280;3673;52.480;13.348;2023-03-20T02:23:11;101121.28;;;16.83;53.04
7264;BME280;3673;52.480;13.348;2023-03-20T02:26:25;101114.16;;;16.85;53.38
7264;BME280;3673;52.480;13.348;2023-03-20T02:32:52;101116.66;;;16.92;52.95
7264;BME280;3673;52.480;13.348;2023-03-20T02:35:55;101110.63;;;16.86;53.11
7264;BME280;3673;52.480;13.348;2023-03-20T02:39:05;101107.34;;;16.75;53.43
7264;BME280;3673;52.480;13.348;2023-03-20T02:41:40;101115.56;;;16.61;53.84
7264;BME280;3673;52.480;13.348;2023-03-20T02:44:14;101118.31;;;16.54;53.89
7264;BME280;3673;52.480;13.348;2023-03-20T02:46:53;101110.28;;;16.61;53.86
7264;BME280;3673;52.480;13.348;2023-03-20T02:49:39;101111.53;;;16.39;54.46
7264;BME280;3673;52.480;13.348;2023-03-20T02:52:17;101113.50;;;16.75;53.72
7264;BME280;3673;52.480;13.348;2023-03-20T02:54:55;101110.84;;;16.77;53.38
7264;BME280;3673;52.480;13.348;2023-03-20T02:57:36;101120.94;;;16.55;53.87
7264;BME280;3673;52.480;13.348;2023-03-20T03:00:11;101119.66;;;16.76;53.47
7264;BME280;3673;52.480;13.348;2023-03-20T03:02:46;101110.72;;;16.81;53.58
7264;BME280;3673;52.480;13.348;2023-03-20T03:05:20;101112.06;;;16.59;54.07
7264;BME280;3673;52.480;13.348;2023-03-20T03:07:51;101106.34;;;16.80;53.43
7264;BME280;3673;52.480;13.348;2023-03-20T03:10:26;101114.63;;;16.64;54.00
7264;BME280;3673;52.480;13.348;2023-03-20T03:12:55;101116.50;;;16.57;53.91
7264;BME280;3673;52.480;13.348;2023-03-20T03:15:28;101119.78;;;16.68;53.84
7264;BME280;3673;52.480;13.348;2023-03-20T03:17:57;101118.16;;;16.63;53.94
7264;BME280;3673;52.480;13.348;2023-03-20T03:20:29;101118.22;;;16.60;54.08
7264;BME280;3673;52.480;13.348;2023-03-20T03:22:58;101124.47;;;16.54;54.06
7264;BME280;3673;52.480;13.348;2023-03-20T03:25:31;101125.88;;;16.26;54.94
7264;BME280;3673;52.480;13.348;2023-03-20T03:28:03;101124.16;;;16.22;55.27
7264;BME280;3673;52.480;13.348;2023-03-20T03:30:34;101128.69;;;16.17;55.26
7264;BME280;3673;52.480;13.348;2023-03-20T03:33:15;101116.09;;;16.31;55.00
7264;BME280;3673;52.480;13.348;2023-03-20T03:35:45;101124.16;;;16.23;55.41
7264;BME280;3673;52.480;13.348;2023-03-20T03:38:25;101125.56;;;16.42;54.54
7264;BME280;3673;52.480;13.348;2023-03-20T03:41:09;101125.16;;;16.18;55.04
7264;BME280;3673;52.480;13.348;2023-03-20T03:43:43;101130.25;;;16.27;55.27
7264;BME280;3673;52.480;13.348;2023-03-20T03:46:18;101128.50;;;16.26;55.43
7264;BME280;3673;52.480;13.348;2023-03-20T03:48:51;101131.97;;;16.28;55.08
7264;BME280;3673;52.480;13.348;2023-03-20T03:51:24;101127.06;;;16.08;55.56
7264;BME280;3673;52.480;13.348;2023-03-20T03:53:56;101134.97;;;16.10;55.61
7264;BME280;3673;52.480;13.348;2023-03-20T03:56:28;101129.91;;;15.98;55.58
7264;BME280;3673;52.480;13.348;2023-03-20T03:58:59;101134.00;;;16.14;55.85
7264;BME280;3673;52.480;13.348;2023-03-20T04:01:28;101122.75;;;16.04;55.84
7264;BME280;3673;52.480;13.348;2023-03-20T04:04:02;101126.22;;;16.05;55.97
7264;BME280;3673;52.480;13.348;2023-03-20T04:06:31;101129.50;;;16.20;55.64
7264;BME280;3673;52.480;13.348;2023-03-20T04:08:58;101129.25;;;16.34;55.20
7264;BME280;3673;52.480;13.348;2023-03-20T04:11:26;101133.78;;;16.26;55.08
7264;BME280;3673;52.480;13.348;2023-03-20T04:13:54;101137.53;;;16.14;55.41
7264;BME280;3673;52.480;13.348;2023-03-20T04:16:23;101147.84;;;15.76;56.47
7264;BME280;3673;52.480;13.348;2023-03-20T04:18:51;101146.63;;;15.96;56.13
7264;BME280;3673;52.480;13.348;2023-03-20T04:21:18;101149.91;;;16.11;55.91
7264;BME280;3673;52.480;13.348;2023-03-20T04:23:45;101164.13;;;16.02;55.79
7264;BME280;3673;52.480;13.348;2023-03-20T04:26:12;101154.91;;;15.74;56.82
7264;BME280;3673;52.480;13.348;2023-03-20T04:28:41;101159.00;;;15.91;56.45
7264;BME280;3673;52.480;13.348;2023-03-20T04:31:07;101164.34;;;15.88;56.58
7264;BME280;3673;52.480;13.348;2023-03-20T04:33:34;101165.00;;;16.03;56.33
7264;BME280;3673;52.480;13.348;2023-03-20T04:36:02;101160.75;;;15.94;56.63
7264;BME280;3673;52.480;13.348;2023-03-20T04:38:30;101155.38;;;16.00;56.71
7264;BME280;3673;52.480;13.348;2023-03-20T04:40:57;101154.09;;;15.70;57.08
7264;BME280;3673;52.480;13.348;2023-03-20T04:43:24;101164.44;;;15.84;56.72
7264;BME280;3673;52.480;13.348;2023-03-20T04:45:52;101154.44;;;15.43;57.93
7264;BME280;3673;52.480;13.348;2023-03-20T04:48:19;101161.31;;;15.58;57.91
7264;BME280;3673;52.480;13.348;2023-03-20T04:50:46;101158.22;;;15.86;57.05
7264;BME280;3673;52.480;13.348;2023-03-20T04:53:16;101153.91;;;15.81;57.14
7264;BME280;3673;52.480;13.348;2023-03-20T04:55:43;101163.84;;;15.64;57.35
7264;BME280;3673;52.480;13.348;2023-03-20T04:58:11;101169.66;;;15.87;57.17
7264;BME280;3673;52.480;13.348;2023-03-20T05:00:38;101166.84;;;15.98;56.85
7264;BME280;3673;52.480;13.348;2023-03-20T05:03:06;101172.94;;;16.01;56.72
7264;BME280;3673;52.480;13.348;2023-03-20T05:05:33;101173.69;;;16.09;56.92
7264;BME280;3673;52.480;13.348;2023-03-20T05:08:03;101166.59;;;16.13;56.84
7264;BME280;3673;52.480;13.348;2023-03-20T05:10:30;101163.94;;;16.11;56.94
7264;BME280;3673;52.480;13.348;2023-03-20T05:12:57;101155.84;;;16.23;56.47
7264;BME280;3673;52.480;13.348;2023-03-20T05:15:23;101161.00;;;16.29;56.55
7264;BME280;3673;52.480;13.348;2023-03-20T05:17:50;101167.72;;;15.96;57.11
7264;BME280;3673;52.480;13.348;2023-03-20T05:20:19;101172.25;;;15.90;57.32
7264;BME280;3673;52.480;13.348;2023-03-20T05:22:48;101171.41;;;15.86;57.42
7264;BME280;3673;52.480;13.348;2023-03-20T05:25:16;101175.66;;;15.96;57.32
7264;BME280;3673;52.480;13.348;2023-03-20T05:27:44;101171.19;;;15.98;57.35
7264;BME280;3673;52.480;13.348;2023-03-20T05:30:13;101172.25;;;15.88;57.45
7264;BME280;3673;52.480;13.348;2023-03-20T05:32:40;101174.50;;;15.56;58.69
7264;BME280;3673;52.480;13.348;2023-03-20T05:35:08;101172.69;;;15.60;58.68
7264;BME280;3673;52.480;13.348;2023-03-20T05:37:36;101169.53;;;15.33;59.81
7264;BME280;3673;52.480;13.348;2023-03-20T05:40:07;101171.00;;;15.56;58.85
7264;BME280;3673;52.480;13.348;2023-03-20T05:42:35;101163.75;;;15.70;58.90
7264;BME280;3673;52.480;13.348;2023-03-20T05:45:03;101167.34;;;15.66;58.62
7264;BME280;3673;52.480;13.348;2023-03-20T05:47:30;101171.00;;;15.57;59.09
7264;BME280;3673;52.480;13.348;2023-03-20T05:49:56;101169.03;;;15.70;58.92
7264;BME280;3673;52.480;13.348;2023-03-20T05:52:23;101173.63;;;15.57;58.73
7264;BME280;3673;52.480;13.348;2023-03-20T05:54:52;101166.94;;;15.29;59.85
7264;BME280;3673;52.480;13.348;2023-03-20T05:57:19;101181.09;;;15.22;60.13
7264;BME280;3673;52.480;13.348;2023-03-20T05:59:47;101174.94;;;15.24;60.11
7264;BME280;3673;52.480;13.348;2023-03-20T06:02:13;101175.03;;;15.17;60.62
7264;BME280;3673;52.480;13.348;2023-03-20T06:04:40;101178.03;;;15.57;59.43
7264;BME280;3673;52.480;13.348;2023-03-20T06:07:07;101179.38;;;15.82;58.69
7264;BME280;3673;52.480;13.348;2023-03-20T06:09:34;101190.47;;;15.44;59.14
7264;BME280;3673;52.480;13.348;2023-03-20T06:12:02;101193.47;;;15.17;60.64
7264;BME280;3673;52.480;13.348;2023-03-20T06:14:29;101196.69;;;15.38;59.88
7264;BME280;3673;52.480;13.348;2023-03-20T06:16:56;101202.41;;;15.04;60.71
7264;BME280;3673;52.480;13.348;2023-03-20T06:19:23;101204.19;;;15.03;61.04
7264;BME280;3673;52.480;13.348;2023-03-20T06:21:50;101209.13;;;15.30;60.18
7264;BME280;3673;52.480;13.348;2023-03-20T06:24:17;101222.19;;;14.63;62.14
7264;BME280;3673;52.480;13.348;2023-03-20T06:26:44;101224.09;;;14.48;62.72
7264;BME280;3673;52.480;13.348;2023-03-20T06:29:12;101215.06;;;14.71;62.15
7264;BME280;3673;52.480;13.348;2023-03-20T06:31:39;101227.34;;;14.74;61.72
7264;BME280;3673;52.480;13.348;2023-03-20T06:34:06;101238.63;;;14.85;61.75
7264;BME280;3673;52.480;13.348;2023-03-20T06:36:33;101231.66;;;14.81;61.79
7264;BME280;3673;52.480;13.348;2023-03-20T06:39:00;101232.97;;;14.30;63.21
7264;BME280;3673;52.480;13.348;2023-03-20T06:41:27;101233.38;;;14.83;61.89
7264;BME280;3673;52.480;13.348;2023-03-20T06:43:54;101237.50;;;15.06;61.13
7264;BME280;3673;52.480;13.348;2023-03-20T06:46:22;101251.81;;;14.83;61.81
7264;BME280;3673;52.480;13.348;2023-03-20T06:48:49;101256.84;;;14.07;63.37
7264;BME280;3673;52.480;13.348;2023-03-20T06:51:17;101261.16;;;14.17;63.40
7264;BME280;3673;52.480;13.348;2023-03-20T06:53:43;101257.66;;;14.14;63.16
7264;BME280;3673;52.480;13.348;2023-03-20T06:56:10;101256.56;;;14.45;62.66
7264;BME280;3673;52.480;13.348;2023-03-20T06:58:37;101258.38;;;14.32;62.90
7264;BME280;3673;52.480;13.348;2023-03-20T07:01:09;101260.50;;;14.93;61.58
7264;BME280;3673;52.480;13.348;2023-03-20T07:03:37;101266.00;;;14.70;61.52
7264;BME280;3673;52.480;13.348;2023-03-20T07:06:05;101270.72;;;14.33;62.38
7264;BME280;3673;52.480;13.348;2023-03-20T07:08:32;101275.28;;;13.98;63.39
7264;BME280;3673;52.480;13.348;2023-03-20T07:10:59;101269.81;;;14.34;61.76
7264;BME280;3673;52.480;13.348;2023-03-20T07:13:26;101270.47;;;14.59;61.02
7264;BME280;3673;52.480;13.348;2023-03-20T07:15:54;101268.19;;;14.14;62.21
7264;BME280;3673;52.480;13.348;2023-03-20T07:18:22;101279.22;;;14.64;61.03
7264;BME280;3673;52.480;13.348;2023-03-20T07:20:52;101272.75;;;14.97;59.99
7264;BME280;3673;52.480;13.348;2023-03-20T07:23:19;101272.44;;;14.34;61.02
7264;BME280;3673;52.480;13.348;2023-03-20T07:25:45;101276.88;;;14.26;61.56
7264;BME280;3673;52.480;13.348;2023-03-20T07:28:12;101280.72;;;14.88;59.92
7264;BME280;3673;52.480;13.348;2023-03-20T07:30:39;101283.19;;;15.05;59.19
7264;BME280;3673;52.480;13.348;2023-03-20T07:33:06;101280.69;;;14.92;59.26
7264;BME280;3673;52.480;13.348;2023-03-20T07:35:33;101290.97;;;14.16;61.55
7264;BME280;3673;52.480;13.348;2023-03-20T07:38:01;101296.25;;;14.13;61.82
7264;BME280;3673;52.480;13.348;2023-03-20T07:40:28;101289.28;;;14.11;62.53
7264;BME280;3673;52.480;13.348;2023-03-20T07:42:55;101292.59;;;14.32;61.40
7264;BME280;3673;52.480;13.348;2023-03-20T07:45:22;101297.81;;;14.44;61.01
7264;BME280;3673;52.480;13.348;2023-03-20T07:47:49;101299.34;;;14.71;60.35
7264;BME280;3673;52.480;13.348;2023-03-20T07:50:16;101285.91;;;15.00;59.25
7264;BME280;3673;52.480;13.348;2023-03-20T07:52:46;101290.97;;;15.20;58.23
7264;BME280;3673;52.480;13.348;2023-03-20T07:55:14;101293.00;;;14.92;59.14
7264;BME280;3673;52.480;13.348;2023-03-20T07:57:41;101293.63;;;15.15;58.22
7264;BME280;3673;52.480;13.348;2023-03-20T08:00:09;101285.06;;;14.97;58.49
7264;BME280;3673;52.480;13.348;2023-03-20T08:02:36;101289.63;;;14.81;59.15
7264;BME280;3673;52.480;13.348;2023-03-20T08:05:04;101294.84;;;14.84;58.82
7264;BME280;3673;52.480;13.348;2023-03-20T08:07:31;101292.09;;;14.96;58.26
7264;BME280;3673;52.480;13.348;2023-03-20T08:09:57;101301.56;;;15.14;58.01
7264;BME280;3673;52.480;13.348;2023-03-20T08:12:26;101296.34;;;15.11;57.96
7264;BME280;3673;52.480;13.348;2023-03-20T08:14:53;101301.59;;;15.09;57.56
7264;BME280;3673;52.480;13.348;2023-03-20T08:17:20;101303.81;;;14.63;59.21
7264;BME280;3673;52.480;13.348;2023-03-20T08:19:46;101307.16;;;14.79;59.30
7264;BME280;3673;52.480;13.348;2023-03-20T08:22:13;101317.91;;;14.56;59.01
7264;BME280;3673;52.480;13.348;2023-03-20T08:24:40;101321.56;;;14.37;60.10
7264;BME280;3673;52.480;13.348;2023-03-20T08:27:07;101324.41;;;14.01;61.53
7264;BME280;3673;52.480;13.348;2023-03-20T08:29:35;101319.06;;;14.11;60.39
7264;BME280;3673;52.480;13.348;2023-03-20T08:32:02;101323.66;;;15.01;58.30
7264;BME280;3673;52.480;13.348;2023-03-20T08:34:30;101318.47;;;14.93;57.83
7264;BME280;3673;52.480;13.348;2023-03-20T08:36:58;101328.38;;;14.67;57.79
7264;BME280;3673;52.480;13.348;2023-03-20T08:39:24;101323.00;;;14.77;57.96
7264;BME280;3673;52.480;13.348;2023-03-20T08:41:51;101321.03;;;15.01;56.79
7264;BME280;3673;52.480;13.348;2023-03-20T08:44:18;101309.50;;;15.11;56.51
7264;BME280;3673;52.480;13.348;2023-03-20T08:46:46;101320.19;;;15.75;55.60
7264;BME280;3673;52.480;13.348;2023-03-20T08:49:13;101304.53;;;15.64;54.96
7264;BME280;3673;52.480;13.348;2023-03-20T08:51:39;101309.84;;;15.60;54.54
7264;BME280;3673;52.480;13.348;2023-03-20T08:54:07;101316.25;;;15.37;55.23
7264;BME280;3673;52.480;13.348;2023-03-20T08:56:34;101321.03;;;15.01;55.73
7264;BME280;3673;52.480;13.348;2023-03-20T08:59:00;101315.72;;;15.83;53.59
7264;BME280;3673;52.480;13.348;2023-03-20T09:01:28;101318.06;;;16.03;52.87
7264;BME280;3673;52.480;13.348;2023-03-20T09:03:56;101312.09;;;16.49;51.57
7264;BME280;3673;52.480;13.348;2023-03-20T09:06:22;101317.47;;;15.82;52.18
7264;BME280;3673;52.480;13.348;2023-03-20T09:08:49;101320.09;;;16.43;51.57
7264;BME280;3673;52.480;13.348;2023-03-20T09:11:17;101320.75;;;15.98;52.44
7264;BME280;3673;52.480;13.348;2023-03-20T09:13:43;101324.88;;;16.20;51.88
7264;BME280;3673;52.480;13.348;2023-03-20T09:16:10;101326.59;;;15.57;52.41
7264;BME280;3673;52.480;13.348;2023-03-20T09:18:37;101319.91;;;15.98;51.88
7264;BME280;3673;52.480;13.348;2023-03-20T09:21:06;101325.53;;;16.34;50.98
7264;BME280;3673;52.480;13.348;2023-03-20T09:23:33;101315.47;;;15.98;52.05
7264;BME280;3673;52.480;13.348;2023-03-20T09:26:00;101301.81;;;15.69;52.74
7264;BME280;3673;52.480;13.348;2023-03-20T09:28:26;101315.03;;;15.66;52.05
7264;BME280;3673;52.480;13.348;2023-03-20T09:30:57;101325.84;;;16.12;51.62
7264;BME280;3673;52.480;13.348;2023-03-20T09:33:25;101316.84;;;16.25;50.85
7264;BME280;3673;52.480;13.348;2023-03-20T09:35:52;101320.81;;;16.58;50.18
7264;BME280;3673;52.480;13.348;2023-03-20T09:38:20;101317.59;;;16.91;49.35
7264;BME280;3673;52.480;13.348;2023-03-20T09:40:53;101319.06;;;17.07;48.42
7264;BME280;3673;52.480;13.348;2023-03-20T09:43:35;101319.66;;;16.74;49.66
7264;BME280;3673;52.480;13.348;2023-03-20T09:46:19;101311.25;;;16.47;50.32
7264;BME280;3673;52.480;13.348;2023-03-20T09:48:58;101310.81;;;17.24;48.75
7264;BME280;3673;52.480;13.348;2023-03-20T09:51:34;101305.72;;;17.13;48.94
7264;BME280;3673;52.480;13.348;2023-03-20T09:54:09;101317.38;;;17.02;49.05
7264;BME280;3673;52.480;13.348;2023-03-20T09:56:37;101316.66;;;16.92;49.36
7264;BME280;3673;52.480;13.348;2023-03-20T09:59:05;101318.38;;;16.96;48.98
7264;BME280;3673;52.480;13.348;2023-03-20T10:01:44;101324.03;;;17.24;48.48
7264;BME280;3673;52.480;13.348;2023-03-20T10:04:12;101320.31;;;16.28;50.65
7264;BME280;3673;52.480;13.348;2023-03-20T10:06:40;101326.81;;;16.06;50.89
7264;BME280;3673;52.480;13.348;2023-03-20T10:09:15;101325.28;;;15.88;51.41
7264;BME280;3673;52.480;13.348;2023-03-20T10:12:07;101321.59;;;16.03;51.34
7264;BME280;3673;52.480;13.348;2023-03-20T10:14:45;101326.91;;;16.60;50.24
7264;BME280;3673;52.480;13.348;2023-03-20T10:17:29;101330.06;;;16.25;50.42
7264;BME280;3673;52.480;13.348;2023-03-20T10:20:12;101324.28;;;16.58;49.95
7264;BME280;3673;52.480;13.348;2023-03-20T10:22:43;101332.97;;;16.65;49.96
7264;BME280;3673;52.480;13.348;2023-03-20T10:25:23;101323.94;;;16.23;50.60
7264;BME280;3673;52.480;13.348;2023-03-20T10:27:56;101321.06;;;15.77;51.63
7264;BME280;3673;52.480;13.348;2023-03-20T10:30:39;101316.72;;;15.74;51.48
7264;BME280;3673;52.480;13.348;2023-03-20T10:33:28;101318.13;;;16.00;50.71
7264;BME280;3673;52.480;13.348;2023-03-20T10:36:12;101312.88;;;15.96;50.28
7264;BME280;3673;52.480;13.348;2023-03-20T10:38:47;101314.50;;;16.05;50.35
7264;BME280;3673;52.480;13.348;2023-03-20T10:41:20;101315.22;;;16.18;50.00
7264;BME280;3673;52.480;13.348;2023-03-20T10:43:50;101309.22;;;16.65;49.13
7264;BME280;3673;52.480;13.348;2023-03-20T10:46:22;101320.66;;;16.67;48.85
7264;BME280;3673;52.480;13.348;2023-03-20T10:48:58;101322.34;;;16.71;48.65
7264;BME280;3673;52.480;13.348;2023-03-20T10:51:37;101310.84;;;16.72;48.48
7264;BME280;3673;52.480;13.348;2023-03-20T10:54:21;101320.53;;;16.15;49.72
7264;BME280;3673;52.480;13.348;2023-03-20T10:56:53;101313.16;;;16.91;47.67
7264;BME280;3673;52.480;13.348;2023-03-20T10:59:24;101316.44;;;16.52;48.64
7264;BME280;3673;52.480;13.348;2023-03-20T11:01:52;101322.41;;;16.65;48.42
7264;BME280;3673;52.480;13.348;2023-03-20T11:04:19;101316.84;;;16.81;48.02
7264;BME280;3673;52.480;13.348;2023-03-20T11:06:53;101314.97;;;16.33;48.42
7264;BME280;3673;52.480;13.348;2023-03-20T11:09:25;101310.44;;;16.42;48.77
7264;BME280;3673;52.480;13.348;2023-03-20T11:11:57;101308.19;;;16.17;49.12
7264;BME280;3673;52.480;13.348;2023-03-20T11:14:32;101315.91;;;16.85;47.39
7264;BME280;3673;52.480;13.348;2023-03-20T11:17:01;101308.03;;;16.27;48.95
7264;BME280;3673;52.480;13.348;2023-03-20T11:19:33;101299.28;;;17.28;47.08
7264;BME280;3673;52.480;13.348;2023-03-20T11:22:22;101296.50;;;17.34;46.06
7264;BME280;3673;52.480;13.348;2023-03-20T11:24:53;101311.91;;;16.63;47.69
7264;BME280;3673;52.480;13.348;2023-03-20T11:27:26;101304.69;;;16.71;47.40
7264;BME280;3673;52.480;13.348;2023-03-20T11:29:54;101300.94;;;16.31;48.17
7264;BME280;3673;52.480;13.348;2023-03-20T11:32:28;101309.09;;;16.16;48.29
7264;BME280;3673;52.480;13.348;2023-03-20T11:35:09;101300.75;;;16.41;47.87
7264;BME280;3673;52.480;13.348;2023-03-20T11:37:43;101309.72;;;16.86;47.04
7264;BME280;3673;52.480;13.348;2023-03-20T11:40:15;101300.69;;;16.46;48.00
7264;BME280;3673;52.480;13.348;2023-03-20T11:42:54;101295.56;;;17.35;46.00
7264;BME280;3673;52.480;13.348;2023-03-20T11:45:22;101300.75;;;16.95;46.52
7264;BME280;3673;52.480;13.348;2023-03-20T11:47:52;101298.63;;;16.68;47.18
7264;BME280;3673;52.480;13.348;2023-03-20T11:50:28;101286.66;;;16.44;47.65
7264;BME280;3673;52.480;13.348;2023-03-20T11:52:56;101283.81;;;16.58;47.06
7264;BME280;3673;52.480;13.348;2023-03-20T11:55:27;101282.41;;;16.32;47.83
7264;BME280;3673;52.480;13.348;2023-03-20T11:57:57;101275.47;;;16.27;48.17
7264;BME280;3673;52.480;13.348;2023-03-20T12:00:28;101277.59;;;16.60;47.46
7264;BME280;3673;52.480;13.348;2023-03-20T12:03:00;101270.53;;;17.08;46.96
7264;BME280;3673;52.480;13.348;2023-03-20T12:05:31;101275.13;;;16.98;46.83
7264;BME280;3673;52.480;13.348;2023-03-20T12:08:04;101274.84;;;16.66;47.14
7264;BME280;3673;52.480;13.348;2023-03-20T12:10:36;101263.47;;;17.53;45.71
7264;BME280;3673;52.480;13.348;2023-03-20T12:13:15;101257.84;;;17.27;45.59
7264;BME280;3673;52.480;13.348;2023-03-20T12:15:46;101260.09;;;17.02;45.98
7264;BME280;3673;52.480;13.348;2023-03-20T12:18:21;101259.97;;;17.08;45.94
7264;BME280;3673;52.480;13.348;2023-03-20T12:21:03;101262.47;;;17.16;45.70
7264;BME280;3673;52.480;13.348;2023-03-20T12:23:36;101256.00;;;17.30;45.19
7264;BME280;3673;52.480;13.348;2023-03-20T12:26:05;101262.38;;;16.74;45.49
7264;BME280;3673;52.480;13.348;2023-03-20T12:28:40;101247.94;;;16.93;45.43
7264;BME280;3673;52.480;13.348;2023-03-20T12:31:23;101250.13;;;16.69;45.39
7264;BME280;3673;52.480;13.348;2023-03-20T12:33:56;101240.56;;;17.09;45.21
7264;BME280;3673;52.480;13.348;2023-03-20T12:36:30;101242.16;;;17.18;45.07
7264;BME280;3673;52.480;13.348;2023-03-20T12:38:58;101242.59;;;17.38;44.35
7264;BME280;3673;52.480;13.348;2023-03-20T12:41:29;101252.31;;;16.94;45.06
7264;BME280;3673;52.480;13.348;2023-03-20T12:44:17;101237.75;;;16.72;45.49
7264;BME280;3673;52.480;13.348;2023-03-20T12:46:52;101238.69;;;16.68;45.51
7264;BME280;3673;52.480;13.348;2023-03-20T12:49:31;101238.72;;;17.14;44.77
7264;BME280;3673;52.480;13.348;2023-03-20T12:52:14;101231.81;;;16.61;45.59
7264;BME280;3673;52.480;13.348;2023-03-20T12:55:09;101238.88;;;16.59;45.77
7264;BME280;3673;52.480;13.348;2023-03-20T12:57:50;101231.13;;;16.97;44.93
7264;BME280;3673;52.480;13.348;2023-03-20T13:00:27;101225.28;;;16.79;45.66
7264;BME280;3673;52.480;13.348;2023-03-20T13:03:08;101222.66;;;16.79;45.65
7264;BME280;3673;52.480;13.348;2023-03-20T13:05:44;101220.53;;;16.97;45.03
7264;BME280;3673;52.480;13.348;2023-03-20T13:11:17;101231.56;;;17.19;44.67
7264;BME280;3673;52.480;13.348;2023-03-20T13:13:51;101229.81;;;16.72;45.79
7264;BME280;3673;52.480;13.348;2023-03-20T13:16:35;101230.00;;;16.63;45.88
7264;BME280;3673;52.480;13.348;2023-03-20T13:19:11;101224.97;;;16.97;45.78
7264;BME280;3673;52.480;13.348;2023-03-20T13:21:49;101227.47;;;16.56;45.95
7264;BME280;3673;52.480;13.348;2023-03-20T13:24:31;101217.44;;;17.20;44.95
7264;BME280;3673;52.480;13.348;2023-03-20T13:27:10;101220.28;;;17.11;45.53
7264;BME280;3673;52.480;13.348;2023-03-20T13:29:49;101216.69;;;17.14;45.66